sensor_id;sensor_type;location;lat;lon;timestamp;pressure;altitude;pressure_sealevel;temperature;humidity
9129;BME280;4599;50.906;6.786;2022-10-22T00:03:51;75856.59;;;-142.83;90.10
9129;BME280;4599;50.906;6.786;2022-10-22T00:07:52;75866.97;;;-142.83;91.12
9129;BME280;4599;50.906;6.786;2022-10-22T00:11:53;75848.28;;;-142.83;90.61
9129;BME280;4599;50.906;6.786;2022-10-22T00:15:56;75840.00;;;-142.83;90.27
9129;BME280;4599;50.906;6.786;2022-10-22T00:19:58;75804.69;;;-142.83;89.44
9129;BME280;4599;50.906;6.786;2022-10-22T00:24:00;75796.41;;;-142.83;88.69
9129;BME280;4599;50.906;6.786;2022-10-22T00:28:02;75804.69;;;-142.83;88.35
9129;BME280;4599;50.906;6.786;2022-10-22T00:32:05;75802.63;;;-142.83;87.79
9129;BME280;4599;50.906;6.786;2022-10-22T00:36:08;75775.63;;;-142.83;87.09
9129;BME280;4599;50.906;6.786;2022-10-22T00:40:10;75796.41;;;-142.83;87.70
9129;BME280;4599;50.906;6.786;2022-10-22T00:48:54;75821.31;;;-142.83;88.96
9129;BME280;4599;50.906;6.786;2022-10-22T00:52:57;75835.84;;;-142.83;89.85
9129;BME280;4599;50.906;6.786;2022-10-22T00:56:59;75821.31;;;-142.83;89.08
9129;BME280;4599;50.906;6.786;2022-10-22T01:01:01;75831.69;;;-142.83;89.93
9129;BME280;4599;50.906;6.786;2022-10-22T01:05:06;75829.59;;;-142.83;90.21
9129;BME280;4599;50.906;6.786;2022-10-22T01:09:15;75823.38;;;-142.83;89.38
9129;BME280;4599;50.906;6.786;2022-10-22T01:13:28;75842.06;;;-142.83;89.49
9129;BME280;4599;50.906;6.786;2022-10-22T01:17:35;75854.53;;;-142.83;90.15
9129;BME280;4599;50.906;6.786;2022-10-22T01:21:45;75864.91;;;-142.83;90.73
9129;BME280;4599;50.906;6.786;2022-10-22T01:25:53;75858.66;;;-142.83;90.59
9129;BME280;4599;50.906;6.786;2022-10-22T01:30:01;75854.53;;;-142.83;91.08
9129;BME280;4599;50.906;6.786;2022-10-22T01:34:05;75866.97;;;-142.83;90.69
9129;BME280;4599;50.906;6.786;2022-10-22T01:38:13;75881.50;;;-142.83;91.29
9129;BME280;4599;50.906;6.786;2022-10-22T01:42:15;75896.03;;;-142.83;91.73
9129;BME280;4599;50.906;6.786;2022-10-22T01:46:20;75883.59;;;-142.83;92.08
9129;BME280;4599;50.906;6.786;2022-10-22T01:50:43;75862.81;;;-142.83;91.78
9129;BME280;4599;50.906;6.786;2022-10-22T01:54:53;75869.06;;;-142.83;92.33
9129;BME280;4599;50.906;6.786;2022-10-22T01:59:03;75837.91;;;-142.83;91.82
9129;BME280;4599;50.906;6.786;2022-10-22T02:03:12;75887.72;;;-142.83;92.05
9129;BME280;4599;50.906;6.786;2022-10-22T02:07:26;75875.28;;;-142.83;92.22
9129;BME280;4599;50.906;6.786;2022-10-22T02:11:29;75881.50;;;-142.83;92.26
9129;BME280;4599;50.906;6.786;2022-10-22T02:15:35;75887.72;;;-142.83;92.01
9129;BME280;4599;50.906;6.786;2022-10-22T02:19:45;75873.19;;;-142.83;91.52
9129;BME280;4599;50.906;6.786;2022-10-22T02:23:48;75864.91;;;-142.83;91.86
9129;BME280;4599;50.906;6.786;2022-10-22T02:27:55;75850.38;;;-142.83;90.85
9129;BME280;4599;50.906;6.786;2022-10-22T02:32:00;75844.13;;;-142.83;91.35
9129;BME280;4599;50.906;6.786;2022-10-22T02:36:06;75844.13;;;-142.83;91.33
9129;BME280;4599;50.906;6.786;2022-10-22T02:40:31;75875.28;;;-142.83;91.50
9129;BME280;4599;50.906;6.786;2022-10-22T02:44:32;75860.75;;;-142.83;92.08
9129;BME280;4599;50.906;6.786;2022-10-22T02:48:34;75879.44;;;-142.83;91.92
9129;BME280;4599;50.906;6.786;2022-10-22T02:52:37;75912.66;;;-142.83;91.79
9129;BME280;4599;50.906;6.786;2022-10-22T02:56:39;75896.03;;;-142.83;92.38
9129;BME280;4599;50.906;6.786;2022-10-22T03:00:41;75887.72;;;-142.83;92.27
9129;BME280;4599;50.906;6.786;2022-10-22T03:04:43;75898.13;;;-142.83;91.75
9129;BME280;4599;50.906;6.786;2022-10-22T03:08:45;75927.19;;;-142.83;91.79
9129;BME280;4599;50.906;6.786;2022-10-22T03:12:47;75954.16;;;-142.83;92.26
9129;BME280;4599;50.906;6.786;2022-10-22T03:16:49;75964.53;;;-142.83;92.45
9129;BME280;4599;50.906;6.786;2022-10-22T03:21:01;75985.31;;;-142.83;92.62
9129;BME280;4599;50.906;6.786;2022-10-22T03:25:09;76006.06;;;-142.83;92.14
9129;BME280;4599;50.906;6.786;2022-10-22T03:29:13;75968.69;;;-142.83;93.39
9129;BME280;4599;50.906;6.786;2022-10-22T03:33:15;75999.84;;;-142.83;92.55
9129;BME280;4599;50.906;6.786;2022-10-22T03:37:17;76022.69;;;-142.83;92.42
9129;BME280;4599;50.906;6.786;2022-10-22T03:41:20;76018.53;;;-142.83;92.96
9129;BME280;4599;50.906;6.786;2022-10-22T03:45:22;75985.31;;;-142.83;93.47
9129;BME280;4599;50.906;6.786;2022-10-22T03:49:25;75987.38;;;-142.83;93.85
9129;BME280;4599;50.906;6.786;2022-10-22T03:53:27;76004.00;;;-142.83;93.21
9129;BME280;4599;50.906;6.786;2022-10-22T03:57:30;75987.38;;;-142.83;93.32
9129;BME280;4599;50.906;6.786;2022-10-22T04:01:32;76001.91;;;-142.83;93.52
9129;BME280;4599;50.906;6.786;2022-10-22T04:05:33;76004.00;;;-142.83;93.47
9129;BME280;4599;50.906;6.786;2022-10-22T04:09:35;75983.22;;;-142.83;93.59
9129;BME280;4599;50.906;6.786;2022-10-22T04:13:38;76006.06;;;-142.83;92.81
9129;BME280;4599;50.906;6.786;2022-10-22T04:17:40;75995.69;;;-142.83;93.58
9129;BME280;4599;50.906;6.786;2022-10-22T04:21:41;76020.59;;;-142.83;93.10
9129;BME280;4599;50.906;6.786;2022-10-22T04:25:43;76041.38;;;-142.83;93.46
9129;BME280;4599;50.906;6.786;2022-10-22T04:29:46;75999.84;;;-142.83;93.49
9129;BME280;4599;50.906;6.786;2022-10-22T04:33:51;75991.53;;;-142.83;93.26
9129;BME280;4599;50.906;6.786;2022-10-22T04:37:53;76024.75;;;-142.83;93.09
9129;BME280;4599;50.906;6.786;2022-10-22T04:41:54;76055.91;;;-142.83;93.69
9129;BME280;4599;50.906;6.786;2022-10-22T04:46:00;76080.81;;;-142.83;93.19
9129;BME280;4599;50.906;6.786;2022-10-22T04:50:02;76111.94;;;-142.83;92.79
9129;BME280;4599;50.906;6.786;2022-10-22T04:54:04;76105.72;;;-142.83;93.34
9129;BME280;4599;50.906;6.786;2022-10-22T04:58:06;76126.47;;;-142.83;92.58
9129;BME280;4599;50.906;6.786;2022-10-22T05:02:08;76136.84;;;-142.83;93.11
9129;BME280;4599;50.906;6.786;2022-10-22T05:06:11;76141.00;;;-142.83;93.13
9129;BME280;4599;50.906;6.786;2022-10-22T05:10:18;76151.41;;;-142.83;92.91
9129;BME280;4599;50.906;6.786;2022-10-22T05:14:21;76145.16;;;-142.83;94.04
9129;BME280;4599;50.906;6.786;2022-10-22T05:18:24;76168.00;;;-142.83;93.47
9129;BME280;4599;50.906;6.786;2022-10-22T05:22:26;76178.38;;;-142.83;93.97
9129;BME280;4599;50.906;6.786;2022-10-22T05:26:28;76186.69;;;-142.83;93.58
9129;BME280;4599;50.906;6.786;2022-10-22T05:30:30;76203.28;;;-142.83;94.02
9129;BME280;4599;50.906;6.786;2022-10-22T05:34:33;76215.75;;;-142.83;93.95
9129;BME280;4599;50.906;6.786;2022-10-22T05:38:35;76219.91;;;-142.83;94.41
9129;BME280;4599;50.906;6.786;2022-10-22T05:42:36;76213.69;;;-142.83;94.49
9129;BME280;4599;50.906;6.786;2022-10-22T05:46:39;76226.13;;;-142.83;93.36
9129;BME280;4599;50.906;6.786;2022-10-22T05:50:42;76240.66;;;-142.83;93.56
9129;BME280;4599;50.906;6.786;2022-10-22T05:54:44;76238.59;;;-142.83;93.25
9129;BME280;4599;50.906;6.786;2022-10-22T05:58:45;76244.81;;;-142.83;93.50
9129;BME280;4599;50.906;6.786;2022-10-22T06:02:49;76255.19;;;-142.83;93.63
9129;BME280;4599;50.906;6.786;2022-10-22T06:06:52;76257.28;;;-142.83;93.46
9129;BME280;4599;50.906;6.786;2022-10-22T06:10:54;76263.50;;;-142.83;93.12
9129;BME280;4599;50.906;6.786;2022-10-22T06:14:56;76267.66;;;-142.83;93.21
9129;BME280;4599;50.906;6.786;2022-10-22T06:18:58;76275.97;;;-142.83;93.01
9129;BME280;4599;50.906;6.786;2022-10-22T06:23:01;76298.81;;;-142.83;93.20
9129;BME280;4599;50.906;6.786;2022-10-22T06:27:03;76278.03;;;-142.83;93.04
9129;BME280;4599;50.906;6.786;2022-10-22T06:31:05;76300.88;;;-142.83;92.61
9129;BME280;4599;50.906;6.786;2022-10-22T06:35:07;76305.03;;;-142.83;93.02
9129;BME280;4599;50.906;6.786;2022-10-22T06:39:12;76300.88;;;-142.83;93.43
9129;BME280;4599;50.906;6.786;2022-10-22T06:43:15;76275.97;;;-142.83;93.11
9129;BME280;4599;50.906;6.786;2022-10-22T06:47:16;76284.28;;;-142.83;92.93
9129;BME280;4599;50.906;6.786;2022-10-22T06:51:18;76261.44;;;-142.83;92.47
9129;BME280;4599;50.906;6.786;2022-10-22T06:55:21;76244.81;;;-142.83;91.94
9129;BME280;4599;50.906;6.786;2022-10-22T06:59:23;76232.38;;;-142.83;90.22
9129;BME280;4599;50.906;6.786;2022-10-22T07:03:24;76234.44;;;-142.83;90.22
9129;BME280;4599;50.906;6.786;2022-10-22T07:07:26;76240.66;;;-142.83;90.16
9129;BME280;4599;50.906;6.786;2022-10-22T07:11:32;76221.97;;;-142.83;89.43
9129;BME280;4599;50.906;6.786;2022-10-22T07:15:37;76207.44;;;-142.83;89.85
9129;BME280;4599;50.906;6.786;2022-10-22T07:19:39;76180.47;;;-142.83;88.26
9129;BME280;4599;50.906;6.786;2022-10-22T07:23:41;76153.47;;;-142.83;87.12
9129;BME280;4599;50.906;6.786;2022-10-22T07:27:44;76136.84;;;-142.83;87.22
9129;BME280;4599;50.906;6.786;2022-10-22T07:31:46;76099.50;;;-142.83;84.40
9129;BME280;4599;50.906;6.786;2022-10-22T07:35:48;76051.75;;;-142.83;81.75
9129;BME280;4599;50.906;6.786;2022-10-22T07:39:49;76051.75;;;-142.83;81.28
9129;BME280;4599;50.906;6.786;2022-10-22T07:43:52;76047.59;;;-142.83;81.65
9129;BME280;4599;50.906;6.786;2022-10-22T07:47:54;76041.38;;;-142.83;79.45
9129;BME280;4599;50.906;6.786;2022-10-22T07:51:55;76026.84;;;-142.83;78.96
9129;BME280;4599;50.906;6.786;2022-10-22T07:55:57;76039.28;;;-142.83;79.59
9129;BME280;4599;50.906;6.786;2022-10-22T08:00:00;76020.59;;;-142.83;78.81
9129;BME280;4599;50.906;6.786;2022-10-22T08:04:01;76004.00;;;-142.83;77.15
9129;BME280;4599;50.906;6.786;2022-10-22T08:08:03;76004.00;;;-142.83;76.69
9129;BME280;4599;50.906;6.786;2022-10-22T08:12:05;76008.16;;;-142.83;76.94
9129;BME280;4599;50.906;6.786;2022-10-22T08:16:08;76008.16;;;-142.83;76.87
9129;BME280;4599;50.906;6.786;2022-10-22T08:20:10;76001.91;;;-142.83;77.85
9129;BME280;4599;50.906;6.786;2022-10-22T08:24:13;76018.53;;;-142.83;77.25
9129;BME280;4599;50.906;6.786;2022-10-22T08:28:15;76012.28;;;-142.83;77.72
9129;BME280;4599;50.906;6.786;2022-10-22T08:32:23;75995.69;;;-142.83;76.33
9129;BME280;4599;50.906;6.786;2022-10-22T08:36:25;75958.31;;;-142.83;75.65
9129;BME280;4599;50.906;6.786;2022-10-22T08:40:29;75970.78;;;-142.83;75.09
9129;BME280;4599;50.906;6.786;2022-10-22T08:44:53;75968.69;;;-142.83;74.19
9129;BME280;4599;50.906;6.786;2022-10-22T08:49:02;75970.78;;;-142.83;77.29
9129;BME280;4599;50.906;6.786;2022-10-22T08:53:14;75958.31;;;-142.83;75.34
9129;BME280;4599;50.906;6.786;2022-10-22T08:57:40;75947.94;;;-142.83;77.70
9129;BME280;4599;50.906;6.786;2022-10-22T09:01:45;75918.88;;;-142.83;75.11
9129;BME280;4599;50.906;6.786;2022-10-22T09:05:55;75933.41;;;-142.83;77.03
9129;BME280;4599;50.906;6.786;2022-10-22T09:09:59;75943.78;;;-142.83;74.47
9129;BME280;4599;50.906;6.786;2022-10-22T09:14:02;75956.25;;;-142.83;74.50
9129;BME280;4599;50.906;6.786;2022-10-22T09:18:15;75966.63;;;-142.83;78.59
9129;BME280;4599;50.906;6.786;2022-10-22T09:22:32;75974.94;;;-142.83;77.50
9129;BME280;4599;50.906;6.786;2022-10-22T09:26:40;75960.41;;;-142.83;75.59
9129;BME280;4599;50.906;6.786;2022-10-22T09:30:42;75960.41;;;-142.83;73.84
9129;BME280;4599;50.906;6.786;2022-10-22T09:34:44;75983.22;;;-142.83;74.31
9129;BME280;4599;50.906;6.786;2022-10-22T09:38:49;75964.53;;;-142.83;74.29
9129;BME280;4599;50.906;6.786;2022-10-22T09:42:51;75991.53;;;-142.83;75.20
9129;BME280;4599;50.906;6.786;2022-10-22T09:46:55;75997.75;;;-142.83;74.80
9129;BME280;4599;50.906;6.786;2022-10-22T09:51:04;75991.53;;;-142.83;74.48
9129;BME280;4599;50.906;6.786;2022-10-22T09:55:13;75991.53;;;-142.83;72.99
9129;BME280;4599;50.906;6.786;2022-10-22T09:59:18;75999.84;;;-142.83;74.79
9129;BME280;4599;50.906;6.786;2022-10-22T10:03:27;76016.44;;;-142.83;75.82
9129;BME280;4599;50.906;6.786;2022-10-22T10:07:32;76016.44;;;-142.83;73.25
9129;BME280;4599;50.906;6.786;2022-10-22T10:11:42;76033.06;;;-142.83;73.49
9129;BME280;4599;50.906;6.786;2022-10-22T10:15:50;76020.59;;;-142.83;71.60
9129;BME280;4599;50.906;6.786;2022-10-22T10:20:02;76033.06;;;-142.83;72.90
9129;BME280;4599;50.906;6.786;2022-10-22T10:24:11;76047.59;;;-142.83;75.12
9129;BME280;4599;50.906;6.786;2022-10-22T10:28:23;76057.97;;;-142.83;73.19
9129;BME280;4599;50.906;6.786;2022-10-22T10:32:42;76051.75;;;-142.83;73.52
9129;BME280;4599;50.906;6.786;2022-10-22T10:36:53;76053.81;;;-142.83;74.41
9129;BME280;4599;50.906;6.786;2022-10-22T10:41:09;76049.66;;;-142.83;73.02
9129;BME280;4599;50.906;6.786;2022-10-22T10:45:19;76060.03;;;-142.83;70.81
9129;BME280;4599;50.906;6.786;2022-10-22T10:49:25;76041.38;;;-142.83;70.70
9129;BME280;4599;50.906;6.786;2022-10-22T10:53:36;76022.69;;;-142.83;70.63
9129;BME280;4599;50.906;6.786;2022-10-22T10:57:48;76020.59;;;-142.83;70.02
9129;BME280;4599;50.906;6.786;2022-10-22T11:02:15;76016.44;;;-142.83;71.26
9129;BME280;4599;50.906;6.786;2022-10-22T11:06:19;76022.69;;;-142.83;69.36
9129;BME280;4599;50.906;6.786;2022-10-22T11:10:29;76022.69;;;-142.83;70.89
9129;BME280;4599;50.906;6.786;2022-10-22T11:14:37;76004.00;;;-142.83;68.88
9129;BME280;4599;50.906;6.786;2022-10-22T11:18:46;76026.84;;;-142.83;68.60
9129;BME280;4599;50.906;6.786;2022-10-22T11:22:52;76014.38;;;-142.83;69.16
9129;BME280;4599;50.906;6.786;2022-10-22T11:27:21;76020.59;;;-142.83;68.05
9129;BME280;4599;50.906;6.786;2022-10-22T11:31:25;76033.06;;;-142.83;69.17
9129;BME280;4599;50.906;6.786;2022-10-22T11:35:31;76037.22;;;-142.83;69.15
9129;BME280;4599;50.906;6.786;2022-10-22T11:39:38;76030.97;;;-142.83;68.24
9129;BME280;4599;50.906;6.786;2022-10-22T11:43:56;75999.84;;;-142.83;67.44
9129;BME280;4599;50.906;6.786;2022-10-22T11:48:05;75983.22;;;-142.83;66.76
9129;BME280;4599;50.906;6.786;2022-10-22T11:52:27;75995.69;;;-142.83;66.89
9129;BME280;4599;50.906;6.786;2022-10-22T11:56:38;75995.69;;;-142.83;66.58
9129;BME280;4599;50.906;6.786;2022-10-22T12:00:45;75991.53;;;-142.83;66.78
9129;BME280;4599;50.906;6.786;2022-10-22T12:04:48;75974.94;;;-142.83;66.20
9129;BME280;4599;50.906;6.786;2022-10-22T12:08:56;75995.69;;;-142.83;68.08
9129;BME280;4599;50.906;6.786;2022-10-22T12:13:03;75970.78;;;-142.83;67.76
9129;BME280;4599;50.906;6.786;2022-10-22T12:17:09;75941.72;;;-142.83;66.41
9129;BME280;4599;50.906;6.786;2022-10-22T12:21:12;75906.41;;;-142.83;66.82
9129;BME280;4599;50.906;6.786;2022-10-22T12:25:21;75858.66;;;-142.83;65.81
9129;BME280;4599;50.906;6.786;2022-10-22T12:29:23;75734.13;;;-142.83;63.07
9129;BME280;4599;50.906;6.786;2022-10-22T12:33:25;75680.16;;;-142.83;61.57
9129;BME280;4599;50.906;6.786;2022-10-22T12:37:28;75663.53;;;-142.83;58.71
9129;BME280;4599;50.906;6.786;2022-10-22T12:41:33;75622.03;;;-142.83;58.91
9129;BME280;4599;50.906;6.786;2022-10-22T12:45:35;75646.94;;;-142.83;57.45
9129;BME280;4599;50.906;6.786;2022-10-22T12:49:40;75649.00;;;-142.83;57.51
9129;BME280;4599;50.906;6.786;2022-10-22T12:53:45;75638.63;;;-142.83;60.80
9129;BME280;4599;50.906;6.786;2022-10-22T12:57:49;75692.59;;;-142.83;58.43
9129;BME280;4599;50.906;6.786;2022-10-22T13:01:52;75705.06;;;-142.83;61.00
9129;BME280;4599;50.906;6.786;2022-10-22T13:05:54;75688.44;;;-142.83;60.17
9129;BME280;4599;50.906;6.786;2022-10-22T13:09:58;75688.44;;;-142.83;60.96
9129;BME280;4599;50.906;6.786;2022-10-22T13:14:02;75725.81;;;-142.83;59.95
9129;BME280;4599;50.906;6.786;2022-10-22T13:18:14;75742.41;;;-142.83;62.43
9129;BME280;4599;50.906;6.786;2022-10-22T13:22:31;75734.13;;;-142.83;61.55
9129;BME280;4599;50.906;6.786;2022-10-22T13:26:35;75742.41;;;-142.83;61.56
9129;BME280;4599;50.906;6.786;2022-10-22T13:30:50;75696.75;;;-142.83;61.73
9129;BME280;4599;50.906;6.786;2022-10-22T13:35:00;75671.84;;;-142.83;62.35
9129;BME280;4599;50.906;6.786;2022-10-22T13:39:15;75702.97;;;-142.83;61.40
9129;BME280;4599;50.906;6.786;2022-10-22T13:43:17;75715.44;;;-142.83;61.06
9129;BME280;4599;50.906;6.786;2022-10-22T13:47:26;75729.97;;;-142.83;65.58
9129;BME280;4599;50.906;6.786;2022-10-22T13:51:32;75752.81;;;-142.83;62.58
9129;BME280;4599;50.906;6.786;2022-10-22T13:55:34;75750.72;;;-142.83;63.96
9129;BME280;4599;50.906;6.786;2022-10-22T13:59:40;75725.81;;;-142.83;60.53
9129;BME280;4599;50.906;6.786;2022-10-22T14:03:43;75752.81;;;-142.83;60.04
9129;BME280;4599;50.906;6.786;2022-10-22T14:07:45;75779.78;;;-142.83;61.64
9129;BME280;4599;50.906;6.786;2022-10-22T14:11:46;75808.84;;;-142.83;66.94
9129;BME280;4599;50.906;6.786;2022-10-22T14:15:49;75821.31;;;-142.83;69.99
9129;BME280;4599;50.906;6.786;2022-10-22T14:19:54;75827.53;;;-142.83;67.86
9129;BME280;4599;50.906;6.786;2022-10-22T14:23:55;75804.69;;;-142.83;65.56
9129;BME280;4599;50.906;6.786;2022-10-22T14:27:57;75794.31;;;-142.83;66.40
9129;BME280;4599;50.906;6.786;2022-10-22T14:31:59;75783.94;;;-142.83;65.28
9129;BME280;4599;50.906;6.786;2022-10-22T14:36:02;75777.72;;;-142.83;67.25
9129;BME280;4599;50.906;6.786;2022-10-22T14:40:04;75788.09;;;-142.83;71.60
9129;BME280;4599;50.906;6.786;2022-10-22T14:44:07;75792.25;;;-142.83;70.06
9129;BME280;4599;50.906;6.786;2022-10-22T14:48:10;75800.53;;;-142.83;69.68
9129;BME280;4599;50.906;6.786;2022-10-22T14:52:13;75802.63;;;-142.83;66.49
9129;BME280;4599;50.906;6.786;2022-10-22T14:56:16;75815.06;;;-142.83;68.97
9129;BME280;4599;50.906;6.786;2022-10-22T15:00:18;75817.16;;;-142.83;65.76
9129;BME280;4599;50.906;6.786;2022-10-22T15:04:21;75821.31;;;-142.83;66.39
9129;BME280;4599;50.906;6.786;2022-10-22T15:08:23;75821.31;;;-142.83;65.12
9129;BME280;4599;50.906;6.786;2022-10-22T15:12:25;75842.06;;;-142.83;71.13
9129;BME280;4599;50.906;6.786;2022-10-22T15:16:27;75871.13;;;-142.83;73.19
9129;BME280;4599;50.906;6.786;2022-10-22T15:20:29;75879.44;;;-142.83;74.26
9129;BME280;4599;50.906;6.786;2022-10-22T15:24:31;75875.28;;;-142.83;68.38
9129;BME280;4599;50.906;6.786;2022-10-22T15:28:33;75902.28;;;-142.83;74.57
9129;BME280;4599;50.906;6.786;2022-10-22T15:32:35;75918.88;;;-142.83;74.69
9129;BME280;4599;50.906;6.786;2022-10-22T15:36:36;75896.03;;;-142.83;68.27
9129;BME280;4599;50.906;6.786;2022-10-22T15:40:39;75920.94;;;-142.83;73.20
9129;BME280;4599;50.906;6.786;2022-10-22T15:44:41;75933.41;;;-142.83;75.21
9129;BME280;4599;50.906;6.786;2022-10-22T15:48:44;75958.31;;;-142.83;76.64
9129;BME280;4599;50.906;6.786;2022-10-22T15:52:45;75981.16;;;-142.83;77.39
9129;BME280;4599;50.906;6.786;2022-10-22T15:56:49;75999.84;;;-142.83;77.74
9129;BME280;4599;50.906;6.786;2022-10-22T16:00:51;76006.06;;;-142.83;77.49
9129;BME280;4599;50.906;6.786;2022-10-22T16:04:52;76012.28;;;-142.83;78.28
9129;BME280;4599;50.906;6.786;2022-10-22T16:08:56;76028.91;;;-142.83;77.77
9129;BME280;4599;50.906;6.786;2022-10-22T16:12:59;76053.81;;;-142.83;77.49
9129;BME280;4599;50.906;6.786;2022-10-22T16:17:01;76076.66;;;-142.83;77.67
9129;BME280;4599;50.906;6.786;2022-10-22T16:21:02;76099.50;;;-142.83;78.03
9129;BME280;4599;50.906;6.786;2022-10-22T16:25:04;76116.09;;;-142.83;78.88
9129;BME280;4599;50.906;6.786;2022-10-22T16:29:07;76130.63;;;-142.83;78.63
9129;BME280;4599;50.906;6.786;2022-10-22T16:33:10;76155.53;;;-142.83;78.82
9129;BME280;4599;50.906;6.786;2022-10-22T16:37:11;76153.47;;;-142.83;78.93
9129;BME280;4599;50.906;6.786;2022-10-22T16:41:14;76157.63;;;-142.83;79.53
9129;BME280;4599;50.906;6.786;2022-10-22T16:45:18;76153.47;;;-142.83;80.18
9129;BME280;4599;50.906;6.786;2022-10-22T16:49:19;76157.63;;;-142.83;81.58
9129;BME280;4599;50.906;6.786;2022-10-22T16:53:20;76147.25;;;-142.83;81.62
9129;BME280;4599;50.906;6.786;2022-10-22T16:57:22;76149.31;;;-142.83;80.81
9129;BME280;4599;50.906;6.786;2022-10-22T17:01:26;76138.94;;;-142.83;80.31
9129;BME280;4599;50.906;6.786;2022-10-22T17:05:28;76149.31;;;-142.83;80.35
9129;BME280;4599;50.906;6.786;2022-10-22T17:09:29;76155.53;;;-142.83;80.46
9129;BME280;4599;50.906;6.786;2022-10-22T17:13:31;76132.72;;;-142.83;78.05
9129;BME280;4599;50.906;6.786;2022-10-22T17:17:34;76107.78;;;-142.83;74.78
9129;BME280;4599;50.906;6.786;2022-10-22T17:21:35;76097.41;;;-142.83;73.20
9129;BME280;4599;50.906;6.786;2022-10-22T17:25:41;76136.84;;;-142.83;77.77
9129;BME280;4599;50.906;6.786;2022-10-22T17:29:43;76165.94;;;-142.83;79.79
9129;BME280;4599;50.906;6.786;2022-10-22T17:33:47;76195.00;;;-142.83;80.32
9129;BME280;4599;50.906;6.786;2022-10-22T17:37:49;76203.28;;;-142.83;80.37
9129;BME280;4599;50.906;6.786;2022-10-22T17:41:51;76195.00;;;-142.83;80.46
9129;BME280;4599;50.906;6.786;2022-10-22T17:45:52;76188.75;;;-142.83;78.30
9129;BME280;4599;50.906;6.786;2022-10-22T17:50:04;76170.06;;;-142.83;77.21
9129;BME280;4599;50.906;6.786;2022-10-22T17:54:06;76161.78;;;-142.83;75.50
9129;BME280;4599;50.906;6.786;2022-10-22T17:58:10;76163.84;;;-142.83;77.27
9129;BME280;4599;50.906;6.786;2022-10-22T18:02:15;76172.16;;;-142.83;78.57
9129;BME280;4599;50.906;6.786;2022-10-22T18:06:18;76186.69;;;-142.83;79.46
9129;BME280;4599;50.906;6.786;2022-10-22T18:10:20;76201.22;;;-142.83;79.70
9129;BME280;4599;50.906;6.786;2022-10-22T18:14:22;76211.59;;;-142.83;79.95
9129;BME280;4599;50.906;6.786;2022-10-22T18:18:24;76221.97;;;-142.83;79.64
9129;BME280;4599;50.906;6.786;2022-10-22T18:22:26;76236.50;;;-142.83;79.96
9129;BME280;4599;50.906;6.786;2022-10-22T18:26:28;76257.28;;;-142.83;80.51
9129;BME280;4599;50.906;6.786;2022-10-22T18:30:30;76265.59;;;-142.83;80.29
9129;BME280;4599;50.906;6.786;2022-10-22T18:34:32;76290.50;;;-142.83;80.88
9129;BME280;4599;50.906;6.786;2022-10-22T18:38:36;76298.81;;;-142.83;81.04
9129;BME280;4599;50.906;6.786;2022-10-22T18:42:37;76305.03;;;-142.83;81.32
9129;BME280;4599;50.906;6.786;2022-10-22T18:46:40;76315.41;;;-142.83;81.92
9129;BME280;4599;50.906;6.786;2022-10-22T18:50:42;76329.94;;;-142.83;81.93
9129;BME280;4599;50.906;6.786;2022-10-22T18:54:45;76340.31;;;-142.83;82.36
9129;BME280;4599;50.906;6.786;2022-10-22T18:58:47;76342.41;;;-142.83;82.81
9129;BME280;4599;50.906;6.786;2022-10-22T19:02:49;76336.19;;;-142.83;82.97
9129;BME280;4599;50.906;6.786;2022-10-22T19:06:50;76352.78;;;-142.83;82.97
9129;BME280;4599;50.906;6.786;2022-10-22T19:10:53;76350.72;;;-142.83;83.32
9129;BME280;4599;50.906;6.786;2022-10-22T19:14:55;76359.00;;;-142.83;83.43
9129;BME280;4599;50.906;6.786;2022-10-22T19:19:01;76363.16;;;-142.83;83.98
9129;BME280;4599;50.906;6.786;2022-10-22T19:23:03;76340.31;;;-142.83;83.59
9129;BME280;4599;50.906;6.786;2022-10-22T19:27:06;76311.25;;;-142.83;82.55
9129;BME280;4599;50.906;6.786;2022-10-22T19:31:11;76298.81;;;-142.83;82.00
9129;BME280;4599;50.906;6.786;2022-10-22T19:35:12;76259.34;;;-142.83;80.83
9129;BME280;4599;50.906;6.786;2022-10-22T19:39:15;76251.06;;;-142.83;80.44
9129;BME280;4599;50.906;6.786;2022-10-22T19:43:18;76244.81;;;-142.83;79.57
9129;BME280;4599;50.906;6.786;2022-10-22T19:47:19;76240.66;;;-142.83;79.13
9129;BME280;4599;50.906;6.786;2022-10-22T19:51:24;76248.97;;;-142.83;80.18
9129;BME280;4599;50.906;6.786;2022-10-22T19:55:26;76234.44;;;-142.83;79.27
9129;BME280;4599;50.906;6.786;2022-10-22T19:59:29;76230.28;;;-142.83;78.87
9129;BME280;4599;50.906;6.786;2022-10-22T20:03:33;76230.28;;;-142.83;79.41
9129;BME280;4599;50.906;6.786;2022-10-22T20:07:35;76253.13;;;-142.83;79.92
9129;BME280;4599;50.906;6.786;2022-10-22T20:11:37;76253.13;;;-142.83;79.89
9129;BME280;4599;50.906;6.786;2022-10-22T20:15:40;76253.13;;;-142.83;80.24
9129;BME280;4599;50.906;6.786;2022-10-22T20:19:42;76265.59;;;-142.83;80.96
9129;BME280;4599;50.906;6.786;2022-10-22T20:23:44;76248.97;;;-142.83;80.04
9129;BME280;4599;50.906;6.786;2022-10-22T20:27:46;76236.50;;;-142.83;79.70
9129;BME280;4599;50.906;6.786;2022-10-22T20:31:49;76232.38;;;-142.83;79.67
9129;BME280;4599;50.906;6.786;2022-10-22T20:35:58;76228.22;;;-142.83;79.34
9129;BME280;4599;50.906;6.786;2022-10-22T20:39:59;76275.97;;;-142.83;81.42
9129;BME280;4599;50.906;6.786;2022-10-22T20:44:01;76313.34;;;-142.83;82.49
9129;BME280;4599;50.906;6.786;2022-10-22T20:48:03;76332.03;;;-142.83;84.05
9129;BME280;4599;50.906;6.786;2022-10-22T20:52:06;76342.41;;;-142.83;83.19
9129;BME280;4599;50.906;6.786;2022-10-22T20:56:07;76356.94;;;-142.83;83.77
9129;BME280;4599;50.906;6.786;2022-10-22T21:00:10;76365.25;;;-142.83;84.26
9129;BME280;4599;50.906;6.786;2022-10-22T21:04:13;76365.25;;;-142.83;84.63
9129;BME280;4599;50.906;6.786;2022-10-22T21:08:15;76381.84;;;-142.83;85.04
9129;BME280;4599;50.906;6.786;2022-10-22T21:12:17;76398.47;;;-142.83;85.00
9129;BME280;4599;50.906;6.786;2022-10-22T21:16:18;76402.63;;;-142.83;85.76
9129;BME280;4599;50.906;6.786;2022-10-22T21:20:21;76417.16;;;-142.83;86.12
9129;BME280;4599;50.906;6.786;2022-10-22T21:24:25;76421.31;;;-142.83;86.21
9129;BME280;4599;50.906;6.786;2022-10-22T21:28:27;76423.38;;;-142.83;86.17
9129;BME280;4599;50.906;6.786;2022-10-22T21:32:33;76427.53;;;-142.83;86.28
9129;BME280;4599;50.906;6.786;2022-10-22T21:36:36;76423.38;;;-142.83;86.27
9129;BME280;4599;50.906;6.786;2022-10-22T21:40:38;76427.53;;;-142.83;86.02